sensor_id;sensor_type;location;lat;lon;timestamp;P1;durP1;ratioP1;P2;durP2;ratioP2
7843;SDS011;3967;48.702;9.326;2022-09-20T00:01:25;3.17;;;2.13;;
7843;SDS011;3967;48.702;9.326;2022-09-20T00:03:55;2.87;;;2.20;;
7843;SDS011;3967;48.702;9.326;2022-09-20T00:06:26;3.53;;;1.80;;
7843;SDS011;3967;48.702;9.326;2022-09-20T00:08:55;3.17;;;2.30;;
7843;SDS011;3967;48.702;9.326;2022-09-20T00:11:23;2.77;;;2.13;;
7843;SDS011;3967;48.702;9.326;2022-09-20T00:13:53;4.13;;;2.00;;
7843;SDS011;3967;48.702;9.326;2022-09-20T00:16:31;2.63;;;2.07;;
7843;SDS011;3967;48.702;9.326;2022-09-20T00:19:00;3.37;;;1.90;;
7843;SDS011;3967;48.702;9.326;2022-09-20T00:21:29;3.83;;;2.43;;
7843;SDS011;3967;48.702;9.326;2022-09-20T00:23:57;2.50;;;2.30;;
7843;SDS011;3967;48.702;9.326;2022-09-20T00:26:25;2.03;;;1.77;;
7843;SDS011;3967;48.702;9.326;2022-09-20T00:28:53;4.10;;;2.10;;
7843;SDS011;3967;48.702;9.326;2022-09-20T00:31:20;4.17;;;2.27;;
7843;SDS011;3967;48.702;9.326;2022-09-20T00:33:47;4.13;;;2.30;;
7843;SDS011;3967;48.702;9.326;2022-09-20T00:36:32;2.30;;;1.83;;
7843;SDS011;3967;48.702;9.326;2022-09-20T00:39:00;4.33;;;1.97;;
7843;SDS011;3967;48.702;9.326;2022-09-20T00:41:28;2.67;;;1.77;;
7843;SDS011;3967;48.702;9.326;2022-09-20T00:43:56;6.50;;;2.17;;
7843;SDS011;3967;48.702;9.326;2022-09-20T00:46:32;2.23;;;2.00;;
7843;SDS011;3967;48.702;9.326;2022-09-20T00:51:39;2.17;;;1.80;;
7843;SDS011;3967;48.702;9.326;2022-09-20T00:54:08;4.00;;;2.10;;
7843;SDS011;3967;48.702;9.326;2022-09-20T00:56:45;6.47;;;1.90;;
7843;SDS011;3967;48.702;9.326;2022-09-20T01:02:12;2.67;;;2.17;;
7843;SDS011;3967;48.702;9.326;2022-09-20T01:04:49;5.73;;;2.10;;
7843;SDS011;3967;48.702;9.326;2022-09-20T01:07:52;2.93;;;1.80;;
7843;SDS011;3967;48.702;9.326;2022-09-20T01:10:21;4.97;;;2.20;;
7843;SDS011;3967;48.702;9.326;2022-09-20T01:12:48;2.20;;;2.00;;
7843;SDS011;3967;48.702;9.326;2022-09-20T01:15:17;2.87;;;1.90;;
7843;SDS011;3967;48.702;9.326;2022-09-20T01:17:45;6.17;;;2.00;;
7843;SDS011;3967;48.702;9.326;2022-09-20T01:20:19;6.77;;;1.90;;
7843;SDS011;3967;48.702;9.326;2022-09-20T01:28:33;4.07;;;1.87;;
7843;SDS011;3967;48.702;9.326;2022-09-20T01:31:03;3.20;;;1.60;;
7843;SDS011;3967;48.702;9.326;2022-09-20T01:36:13;7.17;;;1.90;;
7843;SDS011;3967;48.702;9.326;2022-09-20T01:39:07;5.43;;;1.80;;
7843;SDS011;3967;48.702;9.326;2022-09-20T01:41:58;4.10;;;2.00;;
7843;SDS011;3967;48.702;9.326;2022-09-20T01:44:34;3.87;;;2.10;;
7843;SDS011;3967;48.702;9.326;2022-09-20T01:47:22;3.07;;;1.93;;
7843;SDS011;3967;48.702;9.326;2022-09-20T02:10:56;4.07;;;1.87;;
7843;SDS011;3967;48.702;9.326;2022-09-20T02:13:30;3.70;;;1.70;;
7843;SDS011;3967;48.702;9.326;2022-09-20T02:22:13;3.33;;;1.60;;
7843;SDS011;3967;48.702;9.326;2022-09-20T02:25:20;2.70;;;1.73;;
7843;SDS011;3967;48.702;9.326;2022-09-20T02:30:54;4.87;;;2.10;;
7843;SDS011;3967;48.702;9.326;2022-09-20T02:34:08;2.57;;;2.10;;
7843;SDS011;3967;48.702;9.326;2022-09-20T02:36:39;3.67;;;1.73;;
7843;SDS011;3967;48.702;9.326;2022-09-20T02:39:16;3.23;;;1.80;;
7843;SDS011;3967;48.702;9.326;2022-09-20T02:48:06;5.30;;;1.83;;
7843;SDS011;3967;48.702;9.326;2022-09-20T02:58:59;6.90;;;1.47;;
7843;SDS011;3967;48.702;9.326;2022-09-20T03:07:40;4.67;;;1.53;;
7843;SDS011;3967;48.702;9.326;2022-09-20T03:13:48;5.87;;;1.77;;
7843;SDS011;3967;48.702;9.326;2022-09-20T03:16:21;2.73;;;1.40;;
7843;SDS011;3967;48.702;9.326;2022-09-20T03:24:44;5.47;;;1.47;;
7843;SDS011;3967;48.702;9.326;2022-09-20T03:27:31;3.80;;;1.87;;
7843;SDS011;3967;48.702;9.326;2022-09-20T03:49:26;2.07;;;1.57;;
7843;SDS011;3967;48.702;9.326;2022-09-20T03:57:50;2.37;;;1.37;;
7843;SDS011;3967;48.702;9.326;2022-09-20T04:14:40;8.70;;;1.73;;
7843;SDS011;3967;48.702;9.326;2022-09-20T04:17:17;2.87;;;1.63;;
7843;SDS011;3967;48.702;9.326;2022-09-20T04:22:49;3.47;;;1.87;;
7843;SDS011;3967;48.702;9.326;2022-09-20T04:25:21;2.57;;;1.47;;
7843;SDS011;3967;48.702;9.326;2022-09-20T04:27:54;2.13;;;1.60;;
7843;SDS011;3967;48.702;9.326;2022-09-20T04:30:25;3.73;;;1.73;;
7843;SDS011;3967;48.702;9.326;2022-09-20T04:33:02;1.37;;;1.27;;
7843;SDS011;3967;48.702;9.326;2022-09-20T04:38:18;7.57;;;1.57;;
7843;SDS011;3967;48.702;9.326;2022-09-20T05:00:15;3.00;;;1.70;;
7843;SDS011;3967;48.702;9.326;2022-09-20T05:05:52;2.10;;;1.53;;
7843;SDS011;3967;48.702;9.326;2022-09-20T05:08:57;2.57;;;1.90;;
7843;SDS011;3967;48.702;9.326;2022-09-20T05:17:00;6.90;;;2.30;;
7843;SDS011;3967;48.702;9.326;2022-09-20T05:25:37;3.43;;;2.47;;
7843;SDS011;3967;48.702;9.326;2022-09-20T05:28:10;3.77;;;2.23;;
7843;SDS011;3967;48.702;9.326;2022-09-20T05:30:48;3.80;;;1.83;;
7843;SDS011;3967;48.702;9.326;2022-09-20T05:36:35;3.13;;;2.00;;
7843;SDS011;3967;48.702;9.326;2022-09-20T05:39:32;4.53;;;2.37;;
7843;SDS011;3967;48.702;9.326;2022-09-20T05:42:31;3.40;;;2.30;;
7843;SDS011;3967;48.702;9.326;2022-09-20T05:45:06;3.47;;;1.80;;
7843;SDS011;3967;48.702;9.326;2022-09-20T05:56:34;2.27;;;1.87;;
7843;SDS011;3967;48.702;9.326;2022-09-20T06:05:02;5.30;;;2.10;;
7843;SDS011;3967;48.702;9.326;2022-09-20T06:10:25;5.30;;;2.37;;
7843;SDS011;3967;48.702;9.326;2022-09-20T06:16:08;4.30;;;2.20;;
7843;SDS011;3967;48.702;9.326;2022-09-20T06:21:53;6.33;;;2.87;;
7843;SDS011;3967;48.702;9.326;2022-09-20T06:24:46;6.67;;;2.50;;
7843;SDS011;3967;48.702;9.326;2022-09-20T06:27:22;3.50;;;2.10;;
7843;SDS011;3967;48.702;9.326;2022-09-20T06:30:17;3.80;;;2.13;;
7843;SDS011;3967;48.702;9.326;2022-09-20T06:32:51;6.07;;;2.40;;
7843;SDS011;3967;48.702;9.326;2022-09-20T06:35:40;5.33;;;2.43;;
7843;SDS011;3967;48.702;9.326;2022-09-20T06:41:15;3.43;;;2.60;;
7843;SDS011;3967;48.702;9.326;2022-09-20T06:46:30;5.60;;;2.47;;
7843;SDS011;3967;48.702;9.326;2022-09-20T06:48:58;5.03;;;2.43;;
7843;SDS011;3967;48.702;9.326;2022-09-20T06:51:26;3.47;;;2.50;;
7843;SDS011;3967;48.702;9.326;2022-09-20T06:53:55;5.67;;;2.60;;
7843;SDS011;3967;48.702;9.326;2022-09-20T06:56:23;3.50;;;2.93;;
7843;SDS011;3967;48.702;9.326;2022-09-20T06:58:52;3.70;;;2.17;;
7843;SDS011;3967;48.702;9.326;2022-09-20T07:01:19;5.23;;;3.33;;
7843;SDS011;3967;48.702;9.326;2022-09-20T07:03:55;6.33;;;2.90;;
7843;SDS011;3967;48.702;9.326;2022-09-20T07:06:23;5.57;;;3.10;;
7843;SDS011;3967;48.702;9.326;2022-09-20T07:08:51;6.67;;;3.13;;
7843;SDS011;3967;48.702;9.326;2022-09-20T07:11:18;4.20;;;2.97;;
7843;SDS011;3967;48.702;9.326;2022-09-20T07:13:54;8.03;;;3.10;;
7843;SDS011;3967;48.702;9.326;2022-09-20T07:16:23;3.70;;;2.43;;
7843;SDS011;3967;48.702;9.326;2022-09-20T07:18:51;8.77;;;2.80;;
7843;SDS011;3967;48.702;9.326;2022-09-20T07:21:19;4.43;;;2.70;;
7843;SDS011;3967;48.702;9.326;2022-09-20T07:23:46;6.87;;;2.80;;
7843;SDS011;3967;48.702;9.326;2022-09-20T07:26:19;5.23;;;2.57;;
7843;SDS011;3967;48.702;9.326;2022-09-20T07:28:48;5.17;;;2.80;;
7843;SDS011;3967;48.702;9.326;2022-09-20T07:31:18;4.47;;;3.00;;
7843;SDS011;3967;48.702;9.326;2022-09-20T07:33:46;4.87;;;3.47;;
7843;SDS011;3967;48.702;9.326;2022-09-20T07:36:14;5.37;;;3.50;;
7843;SDS011;3967;48.702;9.326;2022-09-20T07:38:42;9.53;;;2.90;;
7843;SDS011;3967;48.702;9.326;2022-09-20T07:41:13;4.23;;;3.20;;
7843;SDS011;3967;48.702;9.326;2022-09-20T07:43:40;4.23;;;3.20;;
7843;SDS011;3967;48.702;9.326;2022-09-20T07:46:06;5.13;;;3.17;;
7843;SDS011;3967;48.702;9.326;2022-09-20T07:48:35;5.67;;;3.40;;
7843;SDS011;3967;48.702;9.326;2022-09-20T07:51:11;4.10;;;3.37;;
7843;SDS011;3967;48.702;9.326;2022-09-20T07:53:39;4.90;;;3.13;;
7843;SDS011;3967;48.702;9.326;2022-09-20T07:56:10;6.20;;;2.97;;
7843;SDS011;3967;48.702;9.326;2022-09-20T07:58:39;9.47;;;3.40;;
7843;SDS011;3967;48.702;9.326;2022-09-20T08:01:07;4.27;;;3.63;;
7843;SDS011;3967;48.702;9.326;2022-09-20T08:03:37;7.73;;;3.67;;
7843;SDS011;3967;48.702;9.326;2022-09-20T08:06:08;6.97;;;3.90;;
7843;SDS011;3967;48.702;9.326;2022-09-20T08:08:37;5.40;;;3.13;;
7843;SDS011;3967;48.702;9.326;2022-09-20T08:13:34;6.60;;;3.47;;
7843;SDS011;3967;48.702;9.326;2022-09-20T08:16:25;9.63;;;3.70;;
7843;SDS011;3967;48.702;9.326;2022-09-20T08:18:57;6.17;;;3.30;;
7843;SDS011;3967;48.702;9.326;2022-09-20T08:21:25;4.63;;;3.37;;
7843;SDS011;3967;48.702;9.326;2022-09-20T08:23:56;5.90;;;3.30;;
7843;SDS011;3967;48.702;9.326;2022-09-20T08:26:24;5.70;;;3.60;;
7843;SDS011;3967;48.702;9.326;2022-09-20T08:28:53;6.67;;;3.37;;
7843;SDS011;3967;48.702;9.326;2022-09-20T08:31:22;8.70;;;2.57;;
7843;SDS011;3967;48.702;9.326;2022-09-20T08:33:51;8.30;;;2.63;;
7843;SDS011;3967;48.702;9.326;2022-09-20T08:36:20;8.50;;;2.30;;
7843;SDS011;3967;48.702;9.326;2022-09-20T08:38:49;10.10;;;2.70;;
7843;SDS011;3967;48.702;9.326;2022-09-20T08:41:39;6.77;;;2.20;;
7843;SDS011;3967;48.702;9.326;2022-09-20T08:46:49;6.70;;;1.67;;
7843;SDS011;3967;48.702;9.326;2022-09-20T08:49:27;3.93;;;1.23;;
7843;SDS011;3967;48.702;9.326;2022-09-20T08:51:54;3.00;;;1.43;;
7843;SDS011;3967;48.702;9.326;2022-09-20T08:54:29;7.00;;;1.80;;
7843;SDS011;3967;48.702;9.326;2022-09-20T08:57:02;7.47;;;1.40;;
7843;SDS011;3967;48.702;9.326;2022-09-20T08:59:35;9.03;;;1.60;;
7843;SDS011;3967;48.702;9.326;2022-09-20T09:02:02;3.57;;;1.23;;
7843;SDS011;3967;48.702;9.326;2022-09-20T09:04:35;8.03;;;1.40;;
7843;SDS011;3967;48.702;9.326;2022-09-20T09:07:02;4.73;;;1.00;;
7843;SDS011;3967;48.702;9.326;2022-09-20T09:09:29;7.70;;;1.10;;
7843;SDS011;3967;48.702;9.326;2022-09-20T09:12:03;6.57;;;1.30;;
7843;SDS011;3967;48.702;9.326;2022-09-20T09:14:32;5.70;;;1.13;;
7843;SDS011;3967;48.702;9.326;2022-09-20T09:17:17;9.03;;;1.30;;
7843;SDS011;3967;48.702;9.326;2022-09-20T09:19:49;5.40;;;1.00;;
7843;SDS011;3967;48.702;9.326;2022-09-20T09:22:24;4.43;;;1.20;;
7843;SDS011;3967;48.702;9.326;2022-09-20T09:27:56;5.17;;;1.10;;
7843;SDS011;3967;48.702;9.326;2022-09-20T09:30:40;9.80;;;0.93;;
7843;SDS011;3967;48.702;9.326;2022-09-20T09:33:22;4.97;;;1.23;;
7843;SDS011;3967;48.702;9.326;2022-09-20T09:35:54;2.37;;;0.80;;
7843;SDS011;3967;48.702;9.326;2022-09-20T09:38:34;4.87;;;1.33;;
7843;SDS011;3967;48.702;9.326;2022-09-20T09:41:04;3.00;;;0.90;;
7843;SDS011;3967;48.702;9.326;2022-09-20T09:43:34;4.03;;;1.10;;
7843;SDS011;3967;48.702;9.326;2022-09-20T09:46:19;2.97;;;1.00;;
7843;SDS011;3967;48.702;9.326;2022-09-20T09:54:25;3.27;;;0.83;;
7843;SDS011;3967;48.702;9.326;2022-09-20T10:06:06;4.37;;;1.00;;
7843;SDS011;3967;48.702;9.326;2022-09-20T10:19:39;4.83;;;1.60;;
7843;SDS011;3967;48.702;9.326;2022-09-20T10:27:52;4.47;;;1.13;;
7843;SDS011;3967;48.702;9.326;2022-09-20T10:30:39;6.50;;;0.90;;
7843;SDS011;3967;48.702;9.326;2022-09-20T10:36:23;3.90;;;0.90;;
7843;SDS011;3967;48.702;9.326;2022-09-20T10:39:50;6.40;;;1.10;;
7843;SDS011;3967;48.702;9.326;2022-09-20T10:42:26;3.00;;;0.93;;
7843;SDS011;3967;48.702;9.326;2022-09-20T10:48:44;3.17;;;0.87;;
7843;SDS011;3967;48.702;9.326;2022-09-20T10:56:33;5.70;;;1.00;;
7843;SDS011;3967;48.702;9.326;2022-09-20T11:08:00;1.90;;;0.70;;
7843;SDS011;3967;48.702;9.326;2022-09-20T11:10:44;7.70;;;1.17;;
7843;SDS011;3967;48.702;9.326;2022-09-20T11:16:05;3.93;;;0.80;;
7843;SDS011;3967;48.702;9.326;2022-09-20T11:18:47;3.43;;;0.70;;
7843;SDS011;3967;48.702;9.326;2022-09-20T11:21:32;4.03;;;0.80;;
7843;SDS011;3967;48.702;9.326;2022-09-20T11:27:18;3.80;;;0.90;;
7843;SDS011;3967;48.702;9.326;2022-09-20T11:32:30;3.73;;;1.03;;
7843;SDS011;3967;48.702;9.326;2022-09-20T11:37:37;6.50;;;1.00;;
7843;SDS011;3967;48.702;9.326;2022-09-20T11:40:19;3.23;;;0.67;;
7843;SDS011;3967;48.702;9.326;2022-09-20T11:42:51;2.83;;;0.80;;
7843;SDS011;3967;48.702;9.326;2022-09-20T11:45:22;4.37;;;1.07;;
7843;SDS011;3967;48.702;9.326;2022-09-20T11:47:55;3.37;;;0.80;;
7843;SDS011;3967;48.702;9.326;2022-09-20T11:56:18;3.70;;;0.90;;
7843;SDS011;3967;48.702;9.326;2022-09-20T11:58:48;5.63;;;0.90;;
7843;SDS011;3967;48.702;9.326;2022-09-20T12:03:56;6.03;;;1.03;;
7843;SDS011;3967;48.702;9.326;2022-09-20T12:06:54;3.23;;;0.60;;
7843;SDS011;3967;48.702;9.326;2022-09-20T12:09:37;3.47;;;0.73;;
7843;SDS011;3967;48.702;9.326;2022-09-20T12:12:13;3.23;;;1.03;;
7843;SDS011;3967;48.702;9.326;2022-09-20T12:14:53;3.73;;;0.80;;
7843;SDS011;3967;48.702;9.326;2022-09-20T12:28:46;1.73;;;0.60;;
7843;SDS011;3967;48.702;9.326;2022-09-20T12:39:17;2.33;;;0.70;;
7843;SDS011;3967;48.702;9.326;2022-09-20T12:44:46;5.60;;;0.90;;
7843;SDS011;3967;48.702;9.326;2022-09-20T12:47:34;2.83;;;1.20;;
7843;SDS011;3967;48.702;9.326;2022-09-20T12:50:03;2.97;;;0.80;;
7843;SDS011;3967;48.702;9.326;2022-09-20T12:52:57;4.50;;;1.07;;
7843;SDS011;3967;48.702;9.326;2022-09-20T12:55:38;4.13;;;0.90;;
7843;SDS011;3967;48.702;9.326;2022-09-20T12:58:21;3.07;;;0.87;;
7843;SDS011;3967;48.702;9.326;2022-09-20T13:08:55;1.77;;;0.80;;
7843;SDS011;3967;48.702;9.326;2022-09-20T13:14:19;2.33;;;0.80;;
7843;SDS011;3967;48.702;9.326;2022-09-20T13:16:55;2.17;;;0.83;;
7843;SDS011;3967;48.702;9.326;2022-09-20T13:24:48;2.50;;;0.70;;
7843;SDS011;3967;48.702;9.326;2022-09-20T13:27:24;1.73;;;0.93;;
7843;SDS011;3967;48.702;9.326;2022-09-20T13:32:42;1.87;;;0.97;;
7843;SDS011;3967;48.702;9.326;2022-09-20T13:40:24;2.93;;;1.33;;
7843;SDS011;3967;48.702;9.326;2022-09-20T13:43:02;3.83;;;1.20;;
7843;SDS011;3967;48.702;9.326;2022-09-20T13:45:51;3.47;;;1.40;;
7843;SDS011;3967;48.702;9.326;2022-09-20T13:48:26;2.60;;;0.80;;
7843;SDS011;3967;48.702;9.326;2022-09-20T13:50:54;2.40;;;1.10;;
7843;SDS011;3967;48.702;9.326;2022-09-20T13:53:22;2.33;;;0.57;;
7843;SDS011;3967;48.702;9.326;2022-09-20T13:56:10;1.77;;;0.60;;
7843;SDS011;3967;48.702;9.326;2022-09-20T13:59:03;2.80;;;0.87;;
7843;SDS011;3967;48.702;9.326;2022-09-20T14:01:31;1.77;;;0.90;;
7843;SDS011;3967;48.702;9.326;2022-09-20T14:04:04;4.53;;;0.97;;
7843;SDS011;3967;48.702;9.326;2022-09-20T14:06:34;2.83;;;1.03;;
7843;SDS011;3967;48.702;9.326;2022-09-20T14:09:02;2.83;;;0.90;;
7843;SDS011;3967;48.702;9.326;2022-09-20T14:11:36;3.87;;;0.77;;
7843;SDS011;3967;48.702;9.326;2022-09-20T14:14:04;3.00;;;0.70;;
7843;SDS011;3967;48.702;9.326;2022-09-20T14:16:39;1.63;;;0.70;;
7843;SDS011;3967;48.702;9.326;2022-09-20T14:19:15;4.43;;;0.50;;
7843;SDS011;3967;48.702;9.326;2022-09-20T14:21:45;3.30;;;0.77;;
7843;SDS011;3967;48.702;9.326;2022-09-20T14:26:40;3.07;;;1.17;;
7843;SDS011;3967;48.702;9.326;2022-09-20T14:34:43;3.80;;;1.13;;
7843;SDS011;3967;48.702;9.326;2022-09-20T14:37:24;3.10;;;0.90;;
7843;SDS011;3967;48.702;9.326;2022-09-20T14:39:57;4.70;;;1.13;;
7843;SDS011;3967;48.702;9.326;2022-09-20T14:42:42;4.07;;;1.27;;
7843;SDS011;3967;48.702;9.326;2022-09-20T14:45:22;3.07;;;1.03;;
7843;SDS011;3967;48.702;9.326;2022-09-20T14:48:37;2.57;;;1.13;;
7843;SDS011;3967;48.702;9.326;2022-09-20T14:50:41;1.20;;;0.90;;
7843;SDS011;3967;48.702;9.326;2022-09-20T14:55:53;2.90;;;1.23;;
7843;SDS011;3967;48.702;9.326;2022-09-20T15:01:42;2.70;;;1.00;;
7843;SDS011;3967;48.702;9.326;2022-09-20T15:04:20;3.80;;;1.00;;
7843;SDS011;3967;48.702;9.326;2022-09-20T15:06:48;2.17;;;0.97;;
7843;SDS011;3967;48.702;9.326;2022-09-20T15:09:16;5.83;;;1.37;;
7843;SDS011;3967;48.702;9.326;2022-09-20T15:11:44;3.07;;;0.90;;
7843;SDS011;3967;48.702;9.326;2022-09-20T15:14:11;1.63;;;1.10;;
7843;SDS011;3967;48.702;9.326;2022-09-20T15:16:38;2.87;;;1.00;;
7843;SDS011;3967;48.702;9.326;2022-09-20T15:19:04;3.30;;;1.20;;
7843;SDS011;3967;48.702;9.326;2022-09-20T15:21:33;6.03;;;1.30;;
7843;SDS011;3967;48.702;9.326;2022-09-20T15:24:00;1.43;;;0.80;;
7843;SDS011;3967;48.702;9.326;2022-09-20T15:26:27;1.20;;;0.80;;
7843;SDS011;3967;48.702;9.326;2022-09-20T15:28:54;3.80;;;0.80;;
7843;SDS011;3967;48.702;9.326;2022-09-20T15:31:21;4.50;;;1.30;;
7843;SDS011;3967;48.702;9.326;2022-09-20T15:33:47;2.03;;;0.90;;
7843;SDS011;3967;48.702;9.326;2022-09-20T15:36:14;1.67;;;1.17;;
7843;SDS011;3967;48.702;9.326;2022-09-20T15:38:41;3.23;;;1.40;;
7843;SDS011;3967;48.702;9.326;2022-09-20T15:41:08;4.20;;;1.17;;
7843;SDS011;3967;48.702;9.326;2022-09-20T15:43:35;2.90;;;1.20;;
7843;SDS011;3967;48.702;9.326;2022-09-20T15:46:19;1.57;;;1.07;;
7843;SDS011;3967;48.702;9.326;2022-09-20T15:48:47;1.30;;;1.00;;
7843;SDS011;3967;48.702;9.326;2022-09-20T15:51:14;4.67;;;1.40;;
7843;SDS011;3967;48.702;9.326;2022-09-20T15:53:41;4.27;;;1.10;;
7843;SDS011;3967;48.702;9.326;2022-09-20T15:58:43;2.53;;;1.00;;
7843;SDS011;3967;48.702;9.326;2022-09-20T16:01:15;1.30;;;0.83;;
7843;SDS011;3967;48.702;9.326;2022-09-20T16:03:44;1.33;;;1.20;;
7843;SDS011;3967;48.702;9.326;2022-09-20T16:06:12;2.33;;;1.20;;
7843;SDS011;3967;48.702;9.326;2022-09-20T16:08:39;1.53;;;0.90;;
7843;SDS011;3967;48.702;9.326;2022-09-20T16:11:08;4.70;;;0.87;;
7843;SDS011;3967;48.702;9.326;2022-09-20T16:13:37;4.60;;;0.70;;
7843;SDS011;3967;48.702;9.326;2022-09-20T16:16:05;2.30;;;1.03;;
7843;SDS011;3967;48.702;9.326;2022-09-20T16:18:36;2.97;;;0.90;;
7843;SDS011;3967;48.702;9.326;2022-09-20T16:21:21;1.70;;;0.93;;
7843;SDS011;3967;48.702;9.326;2022-09-20T16:23:52;2.50;;;0.90;;
7843;SDS011;3967;48.702;9.326;2022-09-20T16:26:22;1.77;;;0.70;;
7843;SDS011;3967;48.702;9.326;2022-09-20T16:28:50;0.73;;;0.70;;
7843;SDS011;3967;48.702;9.326;2022-09-20T16:34:11;1.40;;;0.60;;
7843;SDS011;3967;48.702;9.326;2022-09-20T16:36:38;0.97;;;0.67;;
7843;SDS011;3967;48.702;9.326;2022-09-20T16:39:09;1.67;;;0.73;;
7843;SDS011;3967;48.702;9.326;2022-09-20T16:41:36;0.80;;;0.80;;
7843;SDS011;3967;48.702;9.326;2022-09-20T16:44:04;2.23;;;0.90;;
7843;SDS011;3967;48.702;9.326;2022-09-20T16:46:32;2.47;;;1.20;;
7843;SDS011;3967;48.702;9.326;2022-09-20T16:49:02;0.97;;;0.80;;
7843;SDS011;3967;48.702;9.326;2022-09-20T16:51:35;1.03;;;0.93;;
7843;SDS011;3967;48.702;9.326;2022-09-20T16:54:04;1.27;;;1.10;;
7843;SDS011;3967;48.702;9.326;2022-09-20T16:56:39;3.17;;;1.07;;
7843;SDS011;3967;48.702;9.326;2022-09-20T16:59:07;1.77;;;0.90;;
7843;SDS011;3967;48.702;9.326;2022-09-20T17:01:36;1.60;;;0.80;;
7843;SDS011;3967;48.702;9.326;2022-09-20T17:04:05;2.20;;;1.00;;
7843;SDS011;3967;48.702;9.326;2022-09-20T17:06:33;1.27;;;0.80;;
7843;SDS011;3967;48.702;9.326;2022-09-20T17:09:01;1.37;;;0.90;;
7843;SDS011;3967;48.702;9.326;2022-09-20T17:11:30;2.13;;;1.10;;
7843;SDS011;3967;48.702;9.326;2022-09-20T17:14:17;1.30;;;0.97;;
7843;SDS011;3967;48.702;9.326;2022-09-20T17:16:45;2.47;;;0.80;;
7843;SDS011;3967;48.702;9.326;2022-09-20T17:19:13;1.30;;;0.90;;
7843;SDS011;3967;48.702;9.326;2022-09-20T17:21:43;2.83;;;0.70;;
7843;SDS011;3967;48.702;9.326;2022-09-20T17:24:15;1.70;;;1.20;;
7843;SDS011;3967;48.702;9.326;2022-09-20T17:26:43;1.90;;;1.10;;
7843;SDS011;3967;48.702;9.326;2022-09-20T17:29:12;1.33;;;0.90;;
7843;SDS011;3967;48.702;9.326;2022-09-20T17:31:42;1.50;;;0.80;;
7843;SDS011;3967;48.702;9.326;2022-09-20T17:34:15;1.77;;;1.20;;
7843;SDS011;3967;48.702;9.326;2022-09-20T17:36:43;1.20;;;1.10;;
7843;SDS011;3967;48.702;9.326;2022-09-20T17:39:11;1.93;;;1.23;;
7843;SDS011;3967;48.702;9.326;2022-09-20T17:41:46;1.73;;;1.20;;
7843;SDS011;3967;48.702;9.326;2022-09-20T17:44:26;4.87;;;1.27;;
7843;SDS011;3967;48.702;9.326;2022-09-20T17:47:02;1.27;;;1.17;;
7843;SDS011;3967;48.702;9.326;2022-09-20T17:49:39;5.87;;;1.40;;
7843;SDS011;3967;48.702;9.326;2022-09-20T17:52:06;3.07;;;1.23;;
7843;SDS011;3967;48.702;9.326;2022-09-20T17:54:40;6.53;;;1.37;;
7843;SDS011;3967;48.702;9.326;2022-09-20T17:57:19;3.77;;;1.10;;
7843;SDS011;3967;48.702;9.326;2022-09-20T17:59:46;3.13;;;1.23;;
7843;SDS011;3967;48.702;9.326;2022-09-20T18:02:16;3.97;;;1.70;;
7843;SDS011;3967;48.702;9.326;2022-09-20T18:04:53;3.07;;;1.60;;
7843;SDS011;3967;48.702;9.326;2022-09-20T18:07:21;2.40;;;2.03;;
7843;SDS011;3967;48.702;9.326;2022-09-20T18:09:52;3.67;;;1.90;;
7843;SDS011;3967;48.702;9.326;2022-09-20T18:12:35;3.23;;;2.20;;
7843;SDS011;3967;48.702;9.326;2022-09-20T18:15:03;7.47;;;3.20;;
7843;SDS011;3967;48.702;9.326;2022-09-20T18:17:37;5.40;;;2.97;;
7843;SDS011;3967;48.702;9.326;2022-09-20T18:20:04;5.93;;;3.33;;
7843;SDS011;3967;48.702;9.326;2022-09-20T18:22:44;4.57;;;2.60;;
7843;SDS011;3967;48.702;9.326;2022-09-20T18:25:26;3.50;;;2.13;;
7843;SDS011;3967;48.702;9.326;2022-09-20T18:27:53;2.83;;;2.20;;
7843;SDS011;3967;48.702;9.326;2022-09-20T18:30:20;2.03;;;1.77;;
7843;SDS011;3967;48.702;9.326;2022-09-20T18:32:50;3.50;;;2.03;;
7843;SDS011;3967;48.702;9.326;2022-09-20T18:35:17;4.60;;;2.17;;
7843;SDS011;3967;48.702;9.326;2022-09-20T18:37:44;5.30;;;3.13;;
7843;SDS011;3967;48.702;9.326;2022-09-20T18:40:10;5.27;;;2.93;;
7843;SDS011;3967;48.702;9.326;2022-09-20T18:42:38;4.20;;;3.40;;
7843;SDS011;3967;48.702;9.326;2022-09-20T18:45:05;5.47;;;3.13;;
7843;SDS011;3967;48.702;9.326;2022-09-20T18:47:32;4.50;;;3.23;;
7843;SDS011;3967;48.702;9.326;2022-09-20T18:49:59;3.90;;;3.00;;
7843;SDS011;3967;48.702;9.326;2022-09-20T18:52:26;3.63;;;2.47;;
7843;SDS011;3967;48.702;9.326;2022-09-20T18:54:54;3.10;;;2.77;;
7843;SDS011;3967;48.702;9.326;2022-09-20T18:57:23;3.07;;;2.73;;
7843;SDS011;3967;48.702;9.326;2022-09-20T18:59:50;7.17;;;2.90;;
7843;SDS011;3967;48.702;9.326;2022-09-20T19:02:47;5.47;;;2.70;;
7843;SDS011;3967;48.702;9.326;2022-09-20T19:05:45;3.90;;;2.03;;
7843;SDS011;3967;48.702;9.326;2022-09-20T19:08:20;2.33;;;1.60;;
7843;SDS011;3967;48.702;9.326;2022-09-20T19:11:03;3.97;;;2.40;;
7843;SDS011;3967;48.702;9.326;2022-09-20T19:13:39;2.63;;;1.90;;
7843;SDS011;3967;48.702;9.326;2022-09-20T19:16:18;2.00;;;1.50;;
7843;SDS011;3967;48.702;9.326;2022-09-20T19:27:11;3.63;;;2.40;;
7843;SDS011;3967;48.702;9.326;2022-09-20T19:29:39;2.17;;;2.00;;
7843;SDS011;3967;48.702;9.326;2022-09-20T19:32:08;5.07;;;2.27;;
7843;SDS011;3967;48.702;9.326;2022-09-20T19:34:42;4.07;;;2.10;;
7843;SDS011;3967;48.702;9.326;2022-09-20T19:37:20;3.40;;;2.80;;
7843;SDS011;3967;48.702;9.326;2022-09-20T19:48:55;3.67;;;2.20;;
7843;SDS011;3967;48.702;9.326;2022-09-20T19:51:33;7.07;;;3.00;;
7843;SDS011;3967;48.702;9.326;2022-09-20T19:54:03;3.43;;;3.13;;
7843;SDS011;3967;48.702;9.326;2022-09-20T19:56:33;4.23;;;2.97;;
7843;SDS011;3967;48.702;9.326;2022-09-20T19:59:09;3.20;;;2.90;;
7843;SDS011;3967;48.702;9.326;2022-09-20T20:01:37;3.20;;;2.90;;
7843;SDS011;3967;48.702;9.326;2022-09-20T20:04:04;3.80;;;3.00;;
7843;SDS011;3967;48.702;9.326;2022-09-20T20:06:53;3.43;;;2.80;;
7843;SDS011;3967;48.702;9.326;2022-09-20T20:17:46;3.30;;;2.80;;
7843;SDS011;3967;48.702;9.326;2022-09-20T20:20:30;5.67;;;3.20;;
7843;SDS011;3967;48.702;9.326;2022-09-20T20:23:20;3.50;;;3.20;;
7843;SDS011;3967;48.702;9.326;2022-09-20T20:26:08;4.20;;;2.90;;
7843;SDS011;3967;48.702;9.326;2022-09-20T20:28:35;2.93;;;2.70;;
7843;SDS011;3967;48.702;9.326;2022-09-20T20:31:02;6.07;;;3.50;;
7843;SDS011;3967;48.702;9.326;2022-09-20T20:33:31;4.80;;;3.53;;
7843;SDS011;3967;48.702;9.326;2022-09-20T20:35:59;22.00;;;3.73;;
7843;SDS011;3967;48.702;9.326;2022-09-20T20:38:27;7.07;;;4.33;;
7843;SDS011;3967;48.702;9.326;2022-09-20T20:41:08;9.93;;;5.60;;
7843;SDS011;3967;48.702;9.326;2022-09-20T20:43:37;4.90;;;4.40;;
7843;SDS011;3967;48.702;9.326;2022-09-20T20:46:07;8.20;;;4.50;;
7843;SDS011;3967;48.702;9.326;2022-09-20T20:48:35;9.00;;;4.40;;
7843;SDS011;3967;48.702;9.326;2022-09-20T20:53:37;7.47;;;4.73;;
7843;SDS011;3967;48.702;9.326;2022-09-20T20:56:10;6.30;;;4.83;;
7843;SDS011;3967;48.702;9.326;2022-09-20T20:58:39;5.83;;;4.53;;
7843;SDS011;3967;48.702;9.326;2022-09-20T21:01:08;8.00;;;4.77;;
7843;SDS011;3967;48.702;9.326;2022-09-20T21:03:39;6.40;;;5.40;;
7843;SDS011;3967;48.702;9.326;2022-09-20T21:06:09;6.87;;;4.83;;
7843;SDS011;3967;48.702;9.326;2022-09-20T21:08:37;7.40;;;5.33;;
7843;SDS011;3967;48.702;9.326;2022-09-20T21:11:09;7.40;;;4.97;;
7843;SDS011;3967;48.702;9.326;2022-09-20T21:13:40;9.70;;;5.63;;
7843;SDS011;3967;48.702;9.326;2022-09-20T21:16:08;5.67;;;4.37;;
7843;SDS011;3967;48.702;9.326;2022-09-20T21:18:40;7.77;;;5.20;;
7843;SDS011;3967;48.702;9.326;2022-09-20T21:23:46;8.97;;;4.50;;
7843;SDS011;3967;48.702;9.326;2022-09-20T21:26:15;10.03;;;5.57;;
7843;SDS011;3967;48.702;9.326;2022-09-20T21:28:48;9.10;;;4.87;;
7843;SDS011;3967;48.702;9.326;2022-09-20T21:31:17;7.57;;;4.87;;
7843;SDS011;3967;48.702;9.326;2022-09-20T21:33:45;7.53;;;5.40;;
7843;SDS011;3967;48.702;9.326;2022-09-20T21:36:13;7.00;;;5.53;;
7843;SDS011;3967;48.702;9.326;2022-09-20T21:38:44;9.47;;;4.77;;
7843;SDS011;3967;48.702;9.326;2022-09-20T21:43:43;8.23;;;5.07;;
7843;SDS011;3967;48.702;9.326;2022-09-20T21:48:43;5.60;;;4.70;;
7843;SDS011;3967;48.702;9.326;2022-09-20T21:51:11;8.43;;;4.87;;
7843;SDS011;3967;48.702;9.326;2022-09-20T21:53:39;5.27;;;4.70;;
7843;SDS011;3967;48.702;9.326;2022-09-20T21:56:07;5.37;;;4.27;;
7843;SDS011;3967;48.702;9.326;2022-09-20T21:58:35;6.47;;;4.70;;
7843;SDS011;3967;48.702;9.326;2022-09-20T22:01:06;4.67;;;4.13;;